sensor_id;sensor_type;location;lat;lon;timestamp;temperature;humidity
12682;DHT22;6405;59.208;18.216;2023-02-15T00:01:55;1.40;99.90
12682;DHT22;6405;59.208;18.216;2023-02-15T00:04:23;1.40;99.90
12682;DHT22;6405;59.208;18.216;2023-02-15T00:06:49;1.40;99.90
12682;DHT22;6405;59.208;18.216;2023-02-15T00:09:15;1.40;99.90
12682;DHT22;6405;59.208;18.216;2023-02-15T00:11:41;1.50;99.90
12682;DHT22;6405;59.208;18.216;2023-02-15T00:14:22;1.50;99.90
12682;DHT22;6405;59.208;18.216;2023-02-15T00:16:50;1.50;99.90
12682;DHT22;6405;59.208;18.216;2023-02-15T00:19:17;1.60;99.90
12682;DHT22;6405;59.208;18.216;2023-02-15T00:21:43;1.60;99.90
12682;DHT22;6405;59.208;18.216;2023-02-15T00:24:11;1.60;99.90
12682;DHT22;6405;59.208;18.216;2023-02-15T00:26:38;1.60;99.90
12682;DHT22;6405;59.208;18.216;2023-02-15T00:29:05;1.60;99.90
12682;DHT22;6405;59.208;18.216;2023-02-15T00:31:32;1.60;99.90
12682;DHT22;6405;59.208;18.216;2023-02-15T00:34:05;1.60;99.90
12682;DHT22;6405;59.208;18.216;2023-02-15T00:36:32;1.60;99.90
12682;DHT22;6405;59.208;18.216;2023-02-15T00:38:57;1.70;99.90
12682;DHT22;6405;59.208;18.216;2023-02-15T00:41:23;1.70;99.90
12682;DHT22;6405;59.208;18.216;2023-02-15T00:43:49;1.70;99.90
12682;DHT22;6405;59.208;18.216;2023-02-15T00:46:14;1.70;99.90
12682;DHT22;6405;59.208;18.216;2023-02-15T00:48:40;1.80;99.90
12682;DHT22;6405;59.208;18.216;2023-02-15T00:51:06;1.70;99.90
12682;DHT22;6405;59.208;18.216;2023-02-15T00:53:31;1.70;99.90
12682;DHT22;6405;59.208;18.216;2023-02-15T00:55:58;1.70;99.90
12682;DHT22;6405;59.208;18.216;2023-02-15T00:58:24;1.70;99.90
12682;DHT22;6405;59.208;18.216;2023-02-15T01:00:49;1.70;99.90
12682;DHT22;6405;59.208;18.216;2023-02-15T01:03:16;1.70;99.90
12682;DHT22;6405;59.208;18.216;2023-02-15T01:05:44;1.70;99.90
12682;DHT22;6405;59.208;18.216;2023-02-15T01:08:10;1.70;99.90
12682;DHT22;6405;59.208;18.216;2023-02-15T01:10:35;1.70;99.90
12682;DHT22;6405;59.208;18.216;2023-02-15T01:13:01;1.70;99.90
12682;DHT22;6405;59.208;18.216;2023-02-15T01:15:27;1.70;99.90
12682;DHT22;6405;59.208;18.216;2023-02-15T01:17:53;1.70;99.90
12682;DHT22;6405;59.208;18.216;2023-02-15T01:20:23;1.80;99.90
12682;DHT22;6405;59.208;18.216;2023-02-15T01:22:49;1.80;99.90
12682;DHT22;6405;59.208;18.216;2023-02-15T01:25:20;1.80;99.90
12682;DHT22;6405;59.208;18.216;2023-02-15T01:27:46;1.80;99.90
12682;DHT22;6405;59.208;18.216;2023-02-15T01:30:13;1.90;99.90
12682;DHT22;6405;59.208;18.216;2023-02-15T01:32:40;1.90;99.90
12682;DHT22;6405;59.208;18.216;2023-02-15T01:35:06;1.90;99.90
12682;DHT22;6405;59.208;18.216;2023-02-15T01:37:33;1.90;99.90
12682;DHT22;6405;59.208;18.216;2023-02-15T01:40:00;1.90;99.90
12682;DHT22;6405;59.208;18.216;2023-02-15T01:42:27;1.90;99.90
12682;DHT22;6405;59.208;18.216;2023-02-15T01:44:56;2.00;99.90
12682;DHT22;6405;59.208;18.216;2023-02-15T01:50:30;2.00;99.90
12682;DHT22;6405;59.208;18.216;2023-02-15T01:53:03;2.00;99.90
12682;DHT22;6405;59.208;18.216;2023-02-15T01:55:54;2.00;99.90
12682;DHT22;6405;59.208;18.216;2023-02-15T01:58:18;2.00;99.90
12682;DHT22;6405;59.208;18.216;2023-02-15T02:00:44;2.00;99.90
12682;DHT22;6405;59.208;18.216;2023-02-15T02:03:10;2.00;99.90
12682;DHT22;6405;59.208;18.216;2023-02-15T02:05:38;2.00;99.90
12682;DHT22;6405;59.208;18.216;2023-02-15T02:08:04;2.00;99.90
12682;DHT22;6405;59.208;18.216;2023-02-15T02:10:30;2.00;99.90
12682;DHT22;6405;59.208;18.216;2023-02-15T02:12:59;2.10;99.90
12682;DHT22;6405;59.208;18.216;2023-02-15T02:24:22;2.00;99.90
12682;DHT22;6405;59.208;18.216;2023-02-15T02:27:18;2.00;99.90
12682;DHT22;6405;59.208;18.216;2023-02-15T02:38:08;2.10;99.90
12682;DHT22;6405;59.208;18.216;2023-02-15T02:40:56;2.10;99.90
12682;DHT22;6405;59.208;18.216;2023-02-15T02:43:53;2.10;99.90
12682;DHT22;6405;59.208;18.216;2023-02-15T02:46:24;2.10;99.90
12682;DHT22;6405;59.208;18.216;2023-02-15T02:48:51;2.10;99.90
12682;DHT22;6405;59.208;18.216;2023-02-15T02:51:18;2.10;99.90
12682;DHT22;6405;59.208;18.216;2023-02-15T02:53:50;2.10;99.90
12682;DHT22;6405;59.208;18.216;2023-02-15T02:56:34;2.10;99.90
12682;DHT22;6405;59.208;18.216;2023-02-15T02:59:10;2.10;99.90
12682;DHT22;6405;59.208;18.216;2023-02-15T03:02:01;1.80;99.90
12682;DHT22;6405;59.208;18.216;2023-02-15T03:04:37;2.10;99.90
12682;DHT22;6405;59.208;18.216;2023-02-15T03:07:07;2.10;99.90
12682;DHT22;6405;59.208;18.216;2023-02-15T03:09:46;2.10;99.90
12682;DHT22;6405;59.208;18.216;2023-02-15T03:12:18;2.10;99.90
12682;DHT22;6405;59.208;18.216;2023-02-15T03:14:48;2.10;99.90
12682;DHT22;6405;59.208;18.216;2023-02-15T03:17:15;2.10;99.90
12682;DHT22;6405;59.208;18.216;2023-02-15T03:19:45;2.10;99.90
12682;DHT22;6405;59.208;18.216;2023-02-15T03:22:19;2.10;99.90
12682;DHT22;6405;59.208;18.216;2023-02-15T03:27:24;2.10;99.90
12682;DHT22;6405;59.208;18.216;2023-02-15T03:29:55;2.10;99.90
12682;DHT22;6405;59.208;18.216;2023-02-15T03:32:23;2.10;99.90
12682;DHT22;6405;59.208;18.216;2023-02-15T03:34:51;2.10;99.90
12682;DHT22;6405;59.208;18.216;2023-02-15T03:40:14;2.10;99.90
12682;DHT22;6405;59.208;18.216;2023-02-15T03:43:13;2.10;99.90
12682;DHT22;6405;59.208;18.216;2023-02-15T03:45:44;2.20;99.90
12682;DHT22;6405;59.208;18.216;2023-02-15T03:48:29;2.20;99.90
12682;DHT22;6405;59.208;18.216;2023-02-15T03:51:00;2.20;99.90
12682;DHT22;6405;59.208;18.216;2023-02-15T03:53:48;2.20;99.90
12682;DHT22;6405;59.208;18.216;2023-02-15T03:56:14;2.20;99.90
12682;DHT22;6405;59.208;18.216;2023-02-15T03:58:40;2.20;99.90
12682;DHT22;6405;59.208;18.216;2023-02-15T04:01:29;2.10;99.90
12682;DHT22;6405;59.208;18.216;2023-02-15T04:04:23;2.20;99.90
12682;DHT22;6405;59.208;18.216;2023-02-15T04:06:49;2.20;99.90
12682;DHT22;6405;59.208;18.216;2023-02-15T04:09:14;2.20;99.90
12682;DHT22;6405;59.208;18.216;2023-02-15T04:11:59;2.20;99.90
12682;DHT22;6405;59.208;18.216;2023-02-15T04:14:25;2.20;99.90
12682;DHT22;6405;59.208;18.216;2023-02-15T04:17:09;2.20;99.90
12682;DHT22;6405;59.208;18.216;2023-02-15T04:19:35;2.20;99.90
12682;DHT22;6405;59.208;18.216;2023-02-15T04:22:20;2.20;99.90
12682;DHT22;6405;59.208;18.216;2023-02-15T04:25:04;2.20;99.90
12682;DHT22;6405;59.208;18.216;2023-02-15T04:27:48;2.20;99.90
12682;DHT22;6405;59.208;18.216;2023-02-15T04:30:17;2.20;99.90
12682;DHT22;6405;59.208;18.216;2023-02-15T04:32:44;2.20;99.90
12682;DHT22;6405;59.208;18.216;2023-02-15T04:35:10;2.20;99.90
12682;DHT22;6405;59.208;18.216;2023-02-15T04:37:37;2.20;99.90
12682;DHT22;6405;59.208;18.216;2023-02-15T04:40:04;2.20;99.90
12682;DHT22;6405;59.208;18.216;2023-02-15T04:42:30;2.20;99.90
12682;DHT22;6405;59.208;18.216;2023-02-15T04:44:56;2.20;99.90
12682;DHT22;6405;59.208;18.216;2023-02-15T04:47:22;2.20;99.90
12682;DHT22;6405;59.208;18.216;2023-02-15T04:49:48;2.20;99.90
12682;DHT22;6405;59.208;18.216;2023-02-15T04:52:14;2.20;99.90
12682;DHT22;6405;59.208;18.216;2023-02-15T04:54:40;2.20;99.90
12682;DHT22;6405;59.208;18.216;2023-02-15T04:57:06;2.20;99.90
12682;DHT22;6405;59.208;18.216;2023-02-15T04:59:32;2.20;99.90
12682;DHT22;6405;59.208;18.216;2023-02-15T05:01:57;2.20;99.90
12682;DHT22;6405;59.208;18.216;2023-02-15T05:04:23;2.20;99.90
12682;DHT22;6405;59.208;18.216;2023-02-15T05:06:49;2.20;99.90
12682;DHT22;6405;59.208;18.216;2023-02-15T05:09:15;2.20;99.90
12682;DHT22;6405;59.208;18.216;2023-02-15T05:11:42;2.20;99.90
12682;DHT22;6405;59.208;18.216;2023-02-15T05:14:07;2.20;99.90
12682;DHT22;6405;59.208;18.216;2023-02-15T05:16:33;2.20;99.90
12682;DHT22;6405;59.208;18.216;2023-02-15T05:18:59;2.20;99.90
12682;DHT22;6405;59.208;18.216;2023-02-15T05:21:25;2.20;99.90
12682;DHT22;6405;59.208;18.216;2023-02-15T05:23:50;2.20;99.90
12682;DHT22;6405;59.208;18.216;2023-02-15T05:26:19;2.20;99.90
12682;DHT22;6405;59.208;18.216;2023-02-15T05:29:03;2.20;99.90
12682;DHT22;6405;59.208;18.216;2023-02-15T05:31:30;2.20;99.90
12682;DHT22;6405;59.208;18.216;2023-02-15T05:33:57;2.20;99.90
12682;DHT22;6405;59.208;18.216;2023-02-15T05:36:23;2.20;99.90
12682;DHT22;6405;59.208;18.216;2023-02-15T05:38:48;2.20;99.90
12682;DHT22;6405;59.208;18.216;2023-02-15T05:41:14;2.30;99.90
12682;DHT22;6405;59.208;18.216;2023-02-15T05:43:40;2.20;99.90
12682;DHT22;6405;59.208;18.216;2023-02-15T05:46:06;2.20;99.90
12682;DHT22;6405;59.208;18.216;2023-02-15T05:48:32;2.20;99.90
12682;DHT22;6405;59.208;18.216;2023-02-15T05:51:06;2.20;99.90
12682;DHT22;6405;59.208;18.216;2023-02-15T05:53:34;2.20;99.90
12682;DHT22;6405;59.208;18.216;2023-02-15T05:56:00;2.20;99.90
12682;DHT22;6405;59.208;18.216;2023-02-15T05:58:32;2.20;99.90
12682;DHT22;6405;59.208;18.216;2023-02-15T06:00:58;2.20;99.90
12682;DHT22;6405;59.208;18.216;2023-02-15T06:03:24;2.20;99.90
12682;DHT22;6405;59.208;18.216;2023-02-15T06:05:51;2.20;99.90
12682;DHT22;6405;59.208;18.216;2023-02-15T06:08:17;2.20;99.90
12682;DHT22;6405;59.208;18.216;2023-02-15T06:10:44;2.20;99.90
12682;DHT22;6405;59.208;18.216;2023-02-15T06:13:10;2.20;99.90
12682;DHT22;6405;59.208;18.216;2023-02-15T06:15:36;2.20;99.90
12682;DHT22;6405;59.208;18.216;2023-02-15T06:18:01;2.20;99.90
12682;DHT22;6405;59.208;18.216;2023-02-15T06:20:27;2.10;99.90
12682;DHT22;6405;59.208;18.216;2023-02-15T06:22:53;2.10;99.90
12682;DHT22;6405;59.208;18.216;2023-02-15T06:25:18;2.10;99.90
12682;DHT22;6405;59.208;18.216;2023-02-15T06:27:44;2.20;99.90
12682;DHT22;6405;59.208;18.216;2023-02-15T06:30:11;2.20;99.90
12682;DHT22;6405;59.208;18.216;2023-02-15T06:32:37;2.20;99.90
12682;DHT22;6405;59.208;18.216;2023-02-15T06:35:03;2.20;99.90
12682;DHT22;6405;59.208;18.216;2023-02-15T06:37:28;2.20;99.90
12682;DHT22;6405;59.208;18.216;2023-02-15T06:39:54;2.20;99.90
12682;DHT22;6405;59.208;18.216;2023-02-15T06:42:21;2.20;99.90
12682;DHT22;6405;59.208;18.216;2023-02-15T06:44:46;2.20;99.90
12682;DHT22;6405;59.208;18.216;2023-02-15T06:47:12;2.20;99.90
12682;DHT22;6405;59.208;18.216;2023-02-15T06:49:38;2.20;99.90
12682;DHT22;6405;59.208;18.216;2023-02-15T06:52:04;2.20;99.90
12682;DHT22;6405;59.208;18.216;2023-02-15T06:54:29;2.20;99.90
12682;DHT22;6405;59.208;18.216;2023-02-15T06:56:55;2.20;99.90
12682;DHT22;6405;59.208;18.216;2023-02-15T06:59:21;2.20;99.90
12682;DHT22;6405;59.208;18.216;2023-02-15T07:01:47;2.20;99.90
12682;DHT22;6405;59.208;18.216;2023-02-15T07:04:12;2.20;99.90
12682;DHT22;6405;59.208;18.216;2023-02-15T07:06:38;2.20;99.90
12682;DHT22;6405;59.208;18.216;2023-02-15T07:09:04;2.20;99.90
12682;DHT22;6405;59.208;18.216;2023-02-15T07:11:30;2.20;99.90
12682;DHT22;6405;59.208;18.216;2023-02-15T07:14:14;2.20;99.90
12682;DHT22;6405;59.208;18.216;2023-02-15T07:16:39;2.20;99.90
12682;DHT22;6405;59.208;18.216;2023-02-15T07:19:05;2.20;99.90
12682;DHT22;6405;59.208;18.216;2023-02-15T07:21:33;2.20;99.90
12682;DHT22;6405;59.208;18.216;2023-02-15T07:23:59;2.30;99.90
12682;DHT22;6405;59.208;18.216;2023-02-15T07:26:25;2.30;99.90
12682;DHT22;6405;59.208;18.216;2023-02-15T07:28:51;2.30;99.90
12682;DHT22;6405;59.208;18.216;2023-02-15T07:31:17;2.30;99.90
12682;DHT22;6405;59.208;18.216;2023-02-15T07:33:42;2.30;99.90
12682;DHT22;6405;59.208;18.216;2023-02-15T07:36:09;2.30;99.90
12682;DHT22;6405;59.208;18.216;2023-02-15T07:38:38;2.30;99.90
12682;DHT22;6405;59.208;18.216;2023-02-15T07:41:10;2.40;99.90
12682;DHT22;6405;59.208;18.216;2023-02-15T07:43:38;2.30;99.90
12682;DHT22;6405;59.208;18.216;2023-02-15T07:46:06;2.30;99.90
12682;DHT22;6405;59.208;18.216;2023-02-15T07:48:36;2.30;99.90
12682;DHT22;6405;59.208;18.216;2023-02-15T07:51:03;2.30;99.90
12682;DHT22;6405;59.208;18.216;2023-02-15T07:53:30;2.30;99.90
12682;DHT22;6405;59.208;18.216;2023-02-15T07:56:05;2.30;99.90
12682;DHT22;6405;59.208;18.216;2023-02-15T07:58:32;2.30;99.90
12682;DHT22;6405;59.208;18.216;2023-02-15T08:01:36;2.30;99.90
12682;DHT22;6405;59.208;18.216;2023-02-15T08:04:03;2.30;99.90
12682;DHT22;6405;59.208;18.216;2023-02-15T08:06:31;2.30;99.90
12682;DHT22;6405;59.208;18.216;2023-02-15T08:08:57;2.30;99.90
12682;DHT22;6405;59.208;18.216;2023-02-15T08:11:27;2.30;99.90
12682;DHT22;6405;59.208;18.216;2023-02-15T08:14:05;2.30;99.90
12682;DHT22;6405;59.208;18.216;2023-02-15T08:18:59;2.30;99.90
12682;DHT22;6405;59.208;18.216;2023-02-15T08:21:27;2.30;99.90
12682;DHT22;6405;59.208;18.216;2023-02-15T08:23:54;2.30;99.90
12682;DHT22;6405;59.208;18.216;2023-02-15T08:26:20;2.40;99.90
12682;DHT22;6405;59.208;18.216;2023-02-15T08:28:46;2.40;99.90
12682;DHT22;6405;59.208;18.216;2023-02-15T08:31:12;2.40;99.90
12682;DHT22;6405;59.208;18.216;2023-02-15T08:33:40;2.40;99.90
12682;DHT22;6405;59.208;18.216;2023-02-15T08:36:08;2.40;99.90
12682;DHT22;6405;59.208;18.216;2023-02-15T08:38:34;2.40;99.90
12682;DHT22;6405;59.208;18.216;2023-02-15T08:41:23;2.40;99.90
12682;DHT22;6405;59.208;18.216;2023-02-15T08:43:52;2.40;99.90
12682;DHT22;6405;59.208;18.216;2023-02-15T08:46:22;2.50;99.90
12682;DHT22;6405;59.208;18.216;2023-02-15T08:48:48;2.50;99.90
12682;DHT22;6405;59.208;18.216;2023-02-15T08:51:25;2.50;99.90
12682;DHT22;6405;59.208;18.216;2023-02-15T08:53:53;2.50;99.90
12682;DHT22;6405;59.208;18.216;2023-02-15T08:56:23;2.50;99.90
12682;DHT22;6405;59.208;18.216;2023-02-15T08:58:49;2.50;99.90
12682;DHT22;6405;59.208;18.216;2023-02-15T09:01:17;2.50;99.90
12682;DHT22;6405;59.208;18.216;2023-02-15T09:03:47;2.50;99.90
12682;DHT22;6405;59.208;18.216;2023-02-15T09:06:14;2.60;99.90
12682;DHT22;6405;59.208;18.216;2023-02-15T09:08:40;2.50;99.90
12682;DHT22;6405;59.208;18.216;2023-02-15T09:11:11;2.60;99.90
12682;DHT22;6405;59.208;18.216;2023-02-15T09:13:38;2.60;99.90
12682;DHT22;6405;59.208;18.216;2023-02-15T09:16:07;2.60;99.90
12682;DHT22;6405;59.208;18.216;2023-02-15T09:18:35;2.60;99.90
12682;DHT22;6405;59.208;18.216;2023-02-15T09:21:13;2.60;99.90
12682;DHT22;6405;59.208;18.216;2023-02-15T09:23:42;2.70;99.90
12682;DHT22;6405;59.208;18.216;2023-02-15T09:26:10;2.60;99.90
12682;DHT22;6405;59.208;18.216;2023-02-15T09:28:36;2.60;99.90
12682;DHT22;6405;59.208;18.216;2023-02-15T09:31:13;2.70;99.90
12682;DHT22;6405;59.208;18.216;2023-02-15T09:33:41;2.70;99.90
12682;DHT22;6405;59.208;18.216;2023-02-15T09:36:15;2.70;99.90
12682;DHT22;6405;59.208;18.216;2023-02-15T09:38:41;3.00;99.90
12682;DHT22;6405;59.208;18.216;2023-02-15T09:44:18;2.70;99.90
12682;DHT22;6405;59.208;18.216;2023-02-15T09:53:12;2.70;99.90
12682;DHT22;6405;59.208;18.216;2023-02-15T09:55:35;2.70;99.90
12682;DHT22;6405;59.208;18.216;2023-02-15T09:58:08;2.70;99.90
12682;DHT22;6405;59.208;18.216;2023-02-15T10:14:20;2.80;99.90
12682;DHT22;6405;59.208;18.216;2023-02-15T10:25:07;2.80;99.90
12682;DHT22;6405;59.208;18.216;2023-02-15T10:27:49;2.80;99.90
12682;DHT22;6405;59.208;18.216;2023-02-15T10:30:22;2.90;99.90
12682;DHT22;6405;59.208;18.216;2023-02-15T10:33:00;2.80;99.90
12682;DHT22;6405;59.208;18.216;2023-02-15T10:52:25;2.90;99.90
12682;DHT22;6405;59.208;18.216;2023-02-15T10:55:23;2.90;99.90
12682;DHT22;6405;59.208;18.216;2023-02-15T11:00:28;2.90;99.90
12682;DHT22;6405;59.208;18.216;2023-02-15T11:05:59;2.90;99.90
12682;DHT22;6405;59.208;18.216;2023-02-15T11:08:29;2.90;99.90
12682;DHT22;6405;59.208;18.216;2023-02-15T11:10:59;2.90;99.90
12682;DHT22;6405;59.208;18.216;2023-02-15T11:13:31;2.90;99.90
12682;DHT22;6405;59.208;18.216;2023-02-15T11:18:39;3.00;99.90
12682;DHT22;6405;59.208;18.216;2023-02-15T11:21:33;2.90;99.90
12682;DHT22;6405;59.208;18.216;2023-02-15T11:24:13;3.00;99.90
12682;DHT22;6405;59.208;18.216;2023-02-15T11:26:43;3.00;99.90
12682;DHT22;6405;59.208;18.216;2023-02-15T11:31:55;2.90;99.90
12682;DHT22;6405;59.208;18.216;2023-02-15T11:34:37;3.00;99.90
12682;DHT22;6405;59.208;18.216;2023-02-15T11:37:18;3.00;99.90
12682;DHT22;6405;59.208;18.216;2023-02-15T11:39:45;3.00;99.90
12682;DHT22;6405;59.208;18.216;2023-02-15T11:42:20;3.00;99.90
12682;DHT22;6405;59.208;18.216;2023-02-15T11:47:38;3.00;99.90
12682;DHT22;6405;59.208;18.216;2023-02-15T11:50:04;2.90;99.90
12682;DHT22;6405;59.208;18.216;2023-02-15T11:52:30;2.90;99.90
12682;DHT22;6405;59.208;18.216;2023-02-15T11:54:56;2.90;99.90
12682;DHT22;6405;59.208;18.216;2023-02-15T11:57:32;2.90;99.90
12682;DHT22;6405;59.208;18.216;2023-02-15T12:02:57;2.90;99.90
12682;DHT22;6405;59.208;18.216;2023-02-15T12:05:24;2.90;99.90
12682;DHT22;6405;59.208;18.216;2023-02-15T12:08:00;3.00;99.90
12682;DHT22;6405;59.208;18.216;2023-02-15T12:10:34;2.90;99.90
12682;DHT22;6405;59.208;18.216;2023-02-15T12:13:15;2.90;99.90
12682;DHT22;6405;59.208;18.216;2023-02-15T12:15:47;2.90;99.90
12682;DHT22;6405;59.208;18.216;2023-02-15T12:18:36;2.90;99.90
12682;DHT22;6405;59.208;18.216;2023-02-15T12:21:12;2.90;99.90
12682;DHT22;6405;59.208;18.216;2023-02-15T12:23:47;2.90;99.90
12682;DHT22;6405;59.208;18.216;2023-02-15T12:26:14;2.90;99.90
12682;DHT22;6405;59.208;18.216;2023-02-15T12:28:44;2.80;99.90
12682;DHT22;6405;59.208;18.216;2023-02-15T12:33:46;2.80;99.90
12682;DHT22;6405;59.208;18.216;2023-02-15T12:36:19;2.80;99.90
12682;DHT22;6405;59.208;18.216;2023-02-15T12:41:44;2.80;99.90
12682;DHT22;6405;59.208;18.216;2023-02-15T12:44:19;2.80;99.90
12682;DHT22;6405;59.208;18.216;2023-02-15T12:47:06;2.80;99.90
12682;DHT22;6405;59.208;18.216;2023-02-15T12:49:34;2.90;99.90
12682;DHT22;6405;59.208;18.216;2023-02-15T12:52:05;2.80;99.90
12682;DHT22;6405;59.208;18.216;2023-02-15T12:54:41;2.80;99.90
12682;DHT22;6405;59.208;18.216;2023-02-15T12:59:54;2.90;99.90
12682;DHT22;6405;59.208;18.216;2023-02-15T13:02:41;2.90;99.90
12682;DHT22;6405;59.208;18.216;2023-02-15T13:05:33;2.90;99.90
12682;DHT22;6405;59.208;18.216;2023-02-15T13:10:31;3.00;99.90
12682;DHT22;6405;59.208;18.216;2023-02-15T13:12:58;2.90;99.90
12682;DHT22;6405;59.208;18.216;2023-02-15T13:17:52;3.00;99.90
12682;DHT22;6405;59.208;18.216;2023-02-15T13:20:21;3.00;99.90
12682;DHT22;6405;59.208;18.216;2023-02-15T13:22:51;3.10;99.90
12682;DHT22;6405;59.208;18.216;2023-02-15T13:25:23;3.00;99.90
12682;DHT22;6405;59.208;18.216;2023-02-15T13:27:52;3.00;99.90
12682;DHT22;6405;59.208;18.216;2023-02-15T13:32:51;2.90;99.90
12682;DHT22;6405;59.208;18.216;2023-02-15T13:35:18;2.90;99.90
12682;DHT22;6405;59.208;18.216;2023-02-15T13:38:07;2.90;99.90
12682;DHT22;6405;59.208;18.216;2023-02-15T13:40:43;2.90;99.90
12682;DHT22;6405;59.208;18.216;2023-02-15T13:43:38;2.80;99.90
12682;DHT22;6405;59.208;18.216;2023-02-15T13:51:45;2.80;99.90
12682;DHT22;6405;59.208;18.216;2023-02-15T14:00:27;2.70;99.90
12682;DHT22;6405;59.208;18.216;2023-02-15T14:16:37;2.50;99.90
12682;DHT22;6405;59.208;18.216;2023-02-15T14:21:44;2.50;99.90
12682;DHT22;6405;59.208;18.216;2023-02-15T14:27:03;2.40;99.90
12682;DHT22;6405;59.208;18.216;2023-02-15T14:29:53;2.40;99.90
12682;DHT22;6405;59.208;18.216;2023-02-15T14:34:52;2.30;99.90
12682;DHT22;6405;59.208;18.216;2023-02-15T14:37:24;2.30;99.90
12682;DHT22;6405;59.208;18.216;2023-02-15T14:40:03;2.30;99.90
12682;DHT22;6405;59.208;18.216;2023-02-15T14:42:58;2.20;99.90
12682;DHT22;6405;59.208;18.216;2023-02-15T14:45:47;2.20;99.90
12682;DHT22;6405;59.208;18.216;2023-02-15T14:48:29;2.20;99.90
12682;DHT22;6405;59.208;18.216;2023-02-15T14:50:56;2.10;99.90
12682;DHT22;6405;59.208;18.216;2023-02-15T14:53:38;2.10;99.90
12682;DHT22;6405;59.208;18.216;2023-02-15T15:01:33;2.10;99.90
12682;DHT22;6405;59.208;18.216;2023-02-15T15:04:06;2.10;99.90
12682;DHT22;6405;59.208;18.216;2023-02-15T15:06:38;2.10;99.90
12682;DHT22;6405;59.208;18.216;2023-02-15T15:11:41;2.00;99.90
12682;DHT22;6405;59.208;18.216;2023-02-15T15:14:08;2.00;99.90
12682;DHT22;6405;59.208;18.216;2023-02-15T15:19:10;1.90;99.90
12682;DHT22;6405;59.208;18.216;2023-02-15T15:24:59;1.90;99.90
12682;DHT22;6405;59.208;18.216;2023-02-15T15:27:50;1.90;99.90
12682;DHT22;6405;59.208;18.216;2023-02-15T15:32:59;1.90;99.90
12682;DHT22;6405;59.208;18.216;2023-02-15T15:41:43;1.80;99.90
12682;DHT22;6405;59.208;18.216;2023-02-15T15:47:13;1.80;99.90
12682;DHT22;6405;59.208;18.216;2023-02-15T15:49:41;1.80;99.90
12682;DHT22;6405;59.208;18.216;2023-02-15T15:52:19;1.70;99.90
12682;DHT22;6405;59.208;18.216;2023-02-15T15:54:48;1.70;99.90
12682;DHT22;6405;59.208;18.216;2023-02-15T15:57:23;1.70;99.90
12682;DHT22;6405;59.208;18.216;2023-02-15T15:59:51;1.70;99.90
12682;DHT22;6405;59.208;18.216;2023-02-15T16:02:17;1.70;99.90
12682;DHT22;6405;59.208;18.216;2023-02-15T16:04:44;1.60;99.90
12682;DHT22;6405;59.208;18.216;2023-02-15T16:07:30;1.70;99.90
12682;DHT22;6405;59.208;18.216;2023-02-15T16:10:07;1.70;99.90
12682;DHT22;6405;59.208;18.216;2023-02-15T16:12:35;1.60;99.90
12682;DHT22;6405;59.208;18.216;2023-02-15T16:15:14;1.60;99.90
12682;DHT22;6405;59.208;18.216;2023-02-15T16:17:43;1.60;99.90
12682;DHT22;6405;59.208;18.216;2023-02-15T16:20:24;1.60;99.90
12682;DHT22;6405;59.208;18.216;2023-02-15T16:28:30;1.60;99.90
12682;DHT22;6405;59.208;18.216;2023-02-15T16:31:16;1.60;99.90
12682;DHT22;6405;59.208;18.216;2023-02-15T16:33:44;1.50;99.90
12682;DHT22;6405;59.208;18.216;2023-02-15T16:36:12;1.50;99.90
12682;DHT22;6405;59.208;18.216;2023-02-15T16:41:12;1.50;99.90
12682;DHT22;6405;59.208;18.216;2023-02-15T16:43:40;1.50;99.90
12682;DHT22;6405;59.208;18.216;2023-02-15T16:46:11;1.40;99.90
12682;DHT22;6405;59.208;18.216;2023-02-15T16:48:44;1.50;99.90
12682;DHT22;6405;59.208;18.216;2023-02-15T16:51:19;1.40;99.90
12682;DHT22;6405;59.208;18.216;2023-02-15T16:53:47;1.40;99.90
12682;DHT22;6405;59.208;18.216;2023-02-15T16:56:13;1.40;99.90
12682;DHT22;6405;59.208;18.216;2023-02-15T16:58:43;1.40;99.90
12682;DHT22;6405;59.208;18.216;2023-02-15T17:01:14;1.40;99.90
12682;DHT22;6405;59.208;18.216;2023-02-15T17:03:41;1.40;99.90
12682;DHT22;6405;59.208;18.216;2023-02-15T17:06:22;1.40;99.90
12682;DHT22;6405;59.208;18.216;2023-02-15T17:08:48;1.40;99.90
12682;DHT22;6405;59.208;18.216;2023-02-15T17:11:21;1.40;99.90
12682;DHT22;6405;59.208;18.216;2023-02-15T17:16:50;1.40;99.90
12682;DHT22;6405;59.208;18.216;2023-02-15T17:19:23;1.40;99.90
12682;DHT22;6405;59.208;18.216;2023-02-15T17:22:15;1.40;99.90
12682;DHT22;6405;59.208;18.216;2023-02-15T17:24:43;1.40;99.90
12682;DHT22;6405;59.208;18.216;2023-02-15T17:27:19;1.40;99.90
12682;DHT22;6405;59.208;18.216;2023-02-15T17:29:57;1.30;99.90
12682;DHT22;6405;59.208;18.216;2023-02-15T17:32:26;1.30;99.90
12682;DHT22;6405;59.208;18.216;2023-02-15T17:40:26;1.30;99.90
12682;DHT22;6405;59.208;18.216;2023-02-15T17:42:52;1.30;99.90
12682;DHT22;6405;59.208;18.216;2023-02-15T17:45:18;1.20;99.90
12682;DHT22;6405;59.208;18.216;2023-02-15T17:47:46;1.20;99.90
12682;DHT22;6405;59.208;18.216;2023-02-15T17:50:24;1.30;99.90
12682;DHT22;6405;59.208;18.216;2023-02-15T17:52:51;1.20;99.90
12682;DHT22;6405;59.208;18.216;2023-02-15T17:55:20;1.20;99.90
12682;DHT22;6405;59.208;18.216;2023-02-15T17:58:11;1.20;99.90
12682;DHT22;6405;59.208;18.216;2023-02-15T18:00:49;1.20;99.90
12682;DHT22;6405;59.208;18.216;2023-02-15T18:03:49;1.20;99.90
12682;DHT22;6405;59.208;18.216;2023-02-15T18:06:35;1.10;99.90
12682;DHT22;6405;59.208;18.216;2023-02-15T18:09:21;1.20;99.90
12682;DHT22;6405;59.208;18.216;2023-02-15T18:14:43;1.10;99.90
12682;DHT22;6405;59.208;18.216;2023-02-15T18:17:11;1.10;99.90
12682;DHT22;6405;59.208;18.216;2023-02-15T18:19:38;1.10;99.90
12682;DHT22;6405;59.208;18.216;2023-02-15T18:22:17;1.10;99.90
12682;DHT22;6405;59.208;18.216;2023-02-15T18:24:44;1.10;99.90
12682;DHT22;6405;59.208;18.216;2023-02-15T18:27:14;1.10;99.90
12682;DHT22;6405;59.208;18.216;2023-02-15T18:29:40;1.10;99.90
12682;DHT22;6405;59.208;18.216;2023-02-15T18:32:08;1.10;99.90
12682;DHT22;6405;59.208;18.216;2023-02-15T18:34:39;1.10;99.90
12682;DHT22;6405;59.208;18.216;2023-02-15T18:37:11;1.10;99.90
12682;DHT22;6405;59.208;18.216;2023-02-15T18:39:42;1.10;99.90
12682;DHT22;6405;59.208;18.216;2023-02-15T18:44:55;1.10;99.90
12682;DHT22;6405;59.208;18.216;2023-02-15T18:47:21;1.10;99.90
12682;DHT22;6405;59.208;18.216;2023-02-15T18:49:46;1.10;99.90
12682;DHT22;6405;59.208;18.216;2023-02-15T18:52:19;1.10;99.90
12682;DHT22;6405;59.208;18.216;2023-02-15T18:54:46;1.00;99.90
12682;DHT22;6405;59.208;18.216;2023-02-15T18:57:14;1.10;99.90
12682;DHT22;6405;59.208;18.216;2023-02-15T18:59:40;1.00;99.90
12682;DHT22;6405;59.208;18.216;2023-02-15T19:02:13;1.00;99.90
12682;DHT22;6405;59.208;18.216;2023-02-15T19:04:39;1.00;99.90
12682;DHT22;6405;59.208;18.216;2023-02-15T19:07:05;1.00;99.90
12682;DHT22;6405;59.208;18.216;2023-02-15T19:09:34;1.00;99.90
12682;DHT22;6405;59.208;18.216;2023-02-15T19:11:59;1.00;99.90
12682;DHT22;6405;59.208;18.216;2023-02-15T19:14:30;1.00;99.90
12682;DHT22;6405;59.208;18.216;2023-02-15T19:16:58;1.00;99.90
12682;DHT22;6405;59.208;18.216;2023-02-15T19:19:25;0.90;99.90